sensor_id;sensor_type;location;lat;lon;timestamp;P1;durP1;ratioP1;P2;durP2;ratioP2
11319;SDS011;5715;48.234;14.320;2022-07-05T00:01:29;7.07;;;6.55;;
11319;SDS011;5715;48.234;14.320;2022-07-05T00:04:17;5.95;;;5.65;;
11319;SDS011;5715;48.234;14.320;2022-07-05T00:07:05;6.20;;;5.90;;
11319;SDS011;5715;48.234;14.320;2022-07-05T00:10:05;6.50;;;6.20;;
11319;SDS011;5715;48.234;14.320;2022-07-05T00:12:53;6.53;;;6.22;;
11319;SDS011;5715;48.234;14.320;2022-07-05T00:15:41;6.55;;;6.15;;
11319;SDS011;5715;48.234;14.320;2022-07-05T00:18:28;6.82;;;6.32;;
11319;SDS011;5715;48.234;14.320;2022-07-05T00:21:16;6.10;;;5.80;;
11319;SDS011;5715;48.234;14.320;2022-07-05T00:24:04;7.05;;;6.65;;
11319;SDS011;5715;48.234;14.320;2022-07-05T00:26:51;6.00;;;5.68;;
11319;SDS011;5715;48.234;14.320;2022-07-05T00:29:39;6.97;;;6.57;;
11319;SDS011;5715;48.234;14.320;2022-07-05T00:32:28;6.50;;;6.20;;
11319;SDS011;5715;48.234;14.320;2022-07-05T00:35:15;6.60;;;6.20;;
11319;SDS011;5715;48.234;14.320;2022-07-05T00:38:03;6.00;;;5.70;;
11319;SDS011;5715;48.234;14.320;2022-07-05T00:40:50;6.65;;;6.25;;
11319;SDS011;5715;48.234;14.320;2022-07-05T00:43:50;6.28;;;5.88;;
11319;SDS011;5715;48.234;14.320;2022-07-05T00:46:45;6.63;;;6.25;;
11319;SDS011;5715;48.234;14.320;2022-07-05T00:49:33;6.68;;;6.18;;
11319;SDS011;5715;48.234;14.320;2022-07-05T00:52:21;6.93;;;6.53;;
11319;SDS011;5715;48.234;14.320;2022-07-05T00:55:10;10.93;;;6.75;;
11319;SDS011;5715;48.234;14.320;2022-07-05T00:57:57;6.93;;;6.63;;
11319;SDS011;5715;48.234;14.320;2022-07-05T01:00:45;6.38;;;6.00;;
11319;SDS011;5715;48.234;14.320;2022-07-05T01:03:33;5.90;;;5.60;;
11319;SDS011;5715;48.234;14.320;2022-07-05T01:06:21;5.97;;;5.68;;
11319;SDS011;5715;48.234;14.320;2022-07-05T01:09:12;5.85;;;5.55;;
11319;SDS011;5715;48.234;14.320;2022-07-05T01:12:02;5.35;;;5.05;;
11319;SDS011;5715;48.234;14.320;2022-07-05T01:14:50;5.28;;;4.88;;
11319;SDS011;5715;48.234;14.320;2022-07-05T01:17:40;4.60;;;4.40;;
11319;SDS011;5715;48.234;14.320;2022-07-05T01:20:28;4.88;;;4.57;;
11319;SDS011;5715;48.234;14.320;2022-07-05T01:23:17;4.20;;;4.00;;
11319;SDS011;5715;48.234;14.320;2022-07-05T01:26:06;5.18;;;4.88;;
11319;SDS011;5715;48.234;14.320;2022-07-05T01:28:54;4.80;;;4.50;;
11319;SDS011;5715;48.234;14.320;2022-07-05T01:31:41;4.93;;;4.63;;
11319;SDS011;5715;48.234;14.320;2022-07-05T01:34:30;4.72;;;4.53;;
11319;SDS011;5715;48.234;14.320;2022-07-05T01:37:18;5.03;;;4.82;;
11319;SDS011;5715;48.234;14.320;2022-07-05T01:40:06;4.70;;;4.50;;
11319;SDS011;5715;48.234;14.320;2022-07-05T01:42:54;5.15;;;4.85;;
11319;SDS011;5715;48.234;14.320;2022-07-05T01:45:43;5.30;;;5.07;;
11319;SDS011;5715;48.234;14.320;2022-07-05T01:48:33;5.57;;;5.28;;
11319;SDS011;5715;48.234;14.320;2022-07-05T01:51:28;6.18;;;5.72;;
11319;SDS011;5715;48.234;14.320;2022-07-05T01:54:23;5.45;;;5.20;;
11319;SDS011;5715;48.234;14.320;2022-07-05T01:57:11;5.82;;;5.30;;
11319;SDS011;5715;48.234;14.320;2022-07-05T01:59:59;4.78;;;4.50;;
11319;SDS011;5715;48.234;14.320;2022-07-05T02:02:46;4.30;;;4.10;;
11319;SDS011;5715;48.234;14.320;2022-07-05T02:05:34;3.72;;;3.53;;
11319;SDS011;5715;48.234;14.320;2022-07-05T02:08:25;3.63;;;3.33;;
11319;SDS011;5715;48.234;14.320;2022-07-05T02:11:17;2.67;;;2.58;;
11319;SDS011;5715;48.234;14.320;2022-07-05T02:14:04;2.40;;;2.30;;
11319;SDS011;5715;48.234;14.320;2022-07-05T02:16:52;2.33;;;2.22;;
11319;SDS011;5715;48.234;14.320;2022-07-05T02:19:39;2.22;;;2.13;;
11319;SDS011;5715;48.234;14.320;2022-07-05T02:22:27;2.33;;;2.22;;
11319;SDS011;5715;48.234;14.320;2022-07-05T02:25:14;2.22;;;2.13;;
11319;SDS011;5715;48.234;14.320;2022-07-05T02:28:02;2.30;;;2.15;;
11319;SDS011;5715;48.234;14.320;2022-07-05T02:30:51;2.28;;;2.17;;
11319;SDS011;5715;48.234;14.320;2022-07-05T02:33:38;1.83;;;1.73;;
11319;SDS011;5715;48.234;14.320;2022-07-05T02:36:26;2.08;;;1.98;;
11319;SDS011;5715;48.234;14.320;2022-07-05T02:39:13;2.05;;;1.77;;
11319;SDS011;5715;48.234;14.320;2022-07-05T02:42:01;2.00;;;1.90;;
11319;SDS011;5715;48.234;14.320;2022-07-05T02:44:49;2.17;;;2.08;;
11319;SDS011;5715;48.234;14.320;2022-07-05T02:47:36;4.13;;;2.08;;
11319;SDS011;5715;48.234;14.320;2022-07-05T02:50:24;2.13;;;2.03;;
11319;SDS011;5715;48.234;14.320;2022-07-05T02:53:12;1.70;;;1.60;;
11319;SDS011;5715;48.234;14.320;2022-07-05T02:55:59;4.40;;;1.92;;
11319;SDS011;5715;48.234;14.320;2022-07-05T02:58:47;1.73;;;1.63;;
11319;SDS011;5715;48.234;14.320;2022-07-05T03:01:35;1.42;;;1.40;;
11319;SDS011;5715;48.234;14.320;2022-07-05T03:04:23;3.13;;;2.03;;
11319;SDS011;5715;48.234;14.320;2022-07-05T03:07:10;1.60;;;1.50;;
11319;SDS011;5715;48.234;14.320;2022-07-05T03:09:58;4.43;;;1.85;;
11319;SDS011;5715;48.234;14.320;2022-07-05T03:12:45;1.88;;;1.77;;
11319;SDS011;5715;48.234;14.320;2022-07-05T03:15:33;1.60;;;1.50;;
11319;SDS011;5715;48.234;14.320;2022-07-05T03:18:20;1.50;;;1.40;;
11319;SDS011;5715;48.234;14.320;2022-07-05T03:21:08;4.28;;;1.98;;
11319;SDS011;5715;48.234;14.320;2022-07-05T03:23:55;2.13;;;1.75;;
11319;SDS011;5715;48.234;14.320;2022-07-05T03:26:43;5.25;;;1.77;;
11319;SDS011;5715;48.234;14.320;2022-07-05T03:29:30;1.75;;;1.65;;
11319;SDS011;5715;48.234;14.320;2022-07-05T03:32:18;2.00;;;1.90;;
11319;SDS011;5715;48.234;14.320;2022-07-05T03:35:05;2.20;;;2.00;;
11319;SDS011;5715;48.234;14.320;2022-07-05T03:37:54;1.80;;;1.70;;
11319;SDS011;5715;48.234;14.320;2022-07-05T03:40:41;1.65;;;1.55;;
11319;SDS011;5715;48.234;14.320;2022-07-05T03:43:29;1.70;;;1.60;;
11319;SDS011;5715;48.234;14.320;2022-07-05T03:46:17;1.80;;;1.70;;
11319;SDS011;5715;48.234;14.320;2022-07-05T03:49:04;1.80;;;1.70;;
11319;SDS011;5715;48.234;14.320;2022-07-05T03:51:52;1.90;;;1.80;;
11319;SDS011;5715;48.234;14.320;2022-07-05T03:54:40;1.80;;;1.70;;
11319;SDS011;5715;48.234;14.320;2022-07-05T03:57:30;2.10;;;1.90;;
11319;SDS011;5715;48.234;14.320;2022-07-05T04:00:17;1.60;;;1.50;;
11319;SDS011;5715;48.234;14.320;2022-07-05T04:03:05;1.85;;;1.75;;
11319;SDS011;5715;48.234;14.320;2022-07-05T04:05:53;1.70;;;1.60;;
11319;SDS011;5715;48.234;14.320;2022-07-05T04:08:40;1.85;;;1.75;;
11319;SDS011;5715;48.234;14.320;2022-07-05T04:11:28;1.92;;;1.83;;
11319;SDS011;5715;48.234;14.320;2022-07-05T04:14:15;4.30;;;1.73;;
11319;SDS011;5715;48.234;14.320;2022-07-05T04:17:03;4.45;;;2.28;;
11319;SDS011;5715;48.234;14.320;2022-07-05T04:19:50;2.10;;;1.90;;
11319;SDS011;5715;48.234;14.320;2022-07-05T04:22:38;1.80;;;1.70;;
11319;SDS011;5715;48.234;14.320;2022-07-05T04:25:25;1.58;;;1.48;;
11319;SDS011;5715;48.234;14.320;2022-07-05T04:28:13;2.30;;;2.13;;
11319;SDS011;5715;48.234;14.320;2022-07-05T04:31:00;2.33;;;2.20;;
11319;SDS011;5715;48.234;14.320;2022-07-05T04:33:48;2.45;;;2.25;;
11319;SDS011;5715;48.234;14.320;2022-07-05T04:36:37;2.20;;;2.10;;
11319;SDS011;5715;48.234;14.320;2022-07-05T04:39:27;2.53;;;2.42;;
11319;SDS011;5715;48.234;14.320;2022-07-05T04:42:14;1.83;;;1.73;;
11319;SDS011;5715;48.234;14.320;2022-07-05T04:45:02;2.15;;;2.05;;
11319;SDS011;5715;48.234;14.320;2022-07-05T04:47:51;2.95;;;2.40;;
11319;SDS011;5715;48.234;14.320;2022-07-05T04:50:39;2.85;;;2.40;;
11319;SDS011;5715;48.234;14.320;2022-07-05T04:53:26;2.22;;;2.13;;
11319;SDS011;5715;48.234;14.320;2022-07-05T04:56:14;2.50;;;2.30;;
11319;SDS011;5715;48.234;14.320;2022-07-05T04:59:01;2.33;;;1.95;;
11319;SDS011;5715;48.234;14.320;2022-07-05T05:01:49;2.60;;;2.40;;
11319;SDS011;5715;48.234;14.320;2022-07-05T05:04:37;2.47;;;2.30;;
11319;SDS011;5715;48.234;14.320;2022-07-05T05:07:24;2.55;;;2.35;;
11319;SDS011;5715;48.234;14.320;2022-07-05T05:10:12;2.13;;;2.03;;
11319;SDS011;5715;48.234;14.320;2022-07-05T05:12:59;2.00;;;1.90;;
11319;SDS011;5715;48.234;14.320;2022-07-05T05:15:47;2.30;;;2.20;;
11319;SDS011;5715;48.234;14.320;2022-07-05T05:18:34;3.10;;;2.75;;
11319;SDS011;5715;48.234;14.320;2022-07-05T05:21:22;2.30;;;2.10;;
11319;SDS011;5715;48.234;14.320;2022-07-05T05:24:09;4.25;;;2.90;;
11319;SDS011;5715;48.234;14.320;2022-07-05T05:26:57;2.42;;;2.33;;
11319;SDS011;5715;48.234;14.320;2022-07-05T05:29:44;2.25;;;2.15;;
11319;SDS011;5715;48.234;14.320;2022-07-05T05:32:33;3.72;;;2.15;;
11319;SDS011;5715;48.234;14.320;2022-07-05T05:35:20;3.05;;;2.35;;
11319;SDS011;5715;48.234;14.320;2022-07-05T05:38:10;2.05;;;1.95;;
11319;SDS011;5715;48.234;14.320;2022-07-05T05:40:57;2.05;;;1.95;;
11319;SDS011;5715;48.234;14.320;2022-07-05T05:43:45;2.35;;;2.25;;
11319;SDS011;5715;48.234;14.320;2022-07-05T05:46:32;2.88;;;2.55;;
11319;SDS011;5715;48.234;14.320;2022-07-05T05:49:20;2.38;;;2.25;;
11319;SDS011;5715;48.234;14.320;2022-07-05T05:52:08;2.50;;;2.30;;
11319;SDS011;5715;48.234;14.320;2022-07-05T05:54:55;2.30;;;2.20;;
11319;SDS011;5715;48.234;14.320;2022-07-05T05:57:43;2.75;;;2.50;;
11319;SDS011;5715;48.234;14.320;2022-07-05T06:00:30;2.80;;;2.50;;
11319;SDS011;5715;48.234;14.320;2022-07-05T06:03:22;2.42;;;2.30;;
11319;SDS011;5715;48.234;14.320;2022-07-05T06:06:12;3.50;;;2.88;;
11319;SDS011;5715;48.234;14.320;2022-07-05T06:08:59;2.70;;;2.50;;
11319;SDS011;5715;48.234;14.320;2022-07-05T06:11:46;2.50;;;2.40;;
11319;SDS011;5715;48.234;14.320;2022-07-05T06:14:34;2.67;;;2.47;;
11319;SDS011;5715;48.234;14.320;2022-07-05T06:17:21;4.05;;;3.30;;
11319;SDS011;5715;48.234;14.320;2022-07-05T06:20:10;2.80;;;2.60;;
11319;SDS011;5715;48.234;14.320;2022-07-05T06:23:01;6.05;;;3.20;;
11319;SDS011;5715;48.234;14.320;2022-07-05T06:25:51;3.00;;;2.80;;
11319;SDS011;5715;48.234;14.320;2022-07-05T06:28:38;2.70;;;2.50;;
11319;SDS011;5715;48.234;14.320;2022-07-05T06:31:26;2.75;;;2.55;;
11319;SDS011;5715;48.234;14.320;2022-07-05T06:34:13;3.03;;;2.83;;
11319;SDS011;5715;48.234;14.320;2022-07-05T06:37:01;2.78;;;2.65;;
11319;SDS011;5715;48.234;14.320;2022-07-05T06:39:48;2.60;;;2.50;;
11319;SDS011;5715;48.234;14.320;2022-07-05T06:42:36;3.30;;;3.10;;
11319;SDS011;5715;48.234;14.320;2022-07-05T06:45:24;2.58;;;2.47;;
11319;SDS011;5715;48.234;14.320;2022-07-05T06:48:12;2.92;;;2.72;;
11319;SDS011;5715;48.234;14.320;2022-07-05T06:50:59;2.75;;;2.55;;
11319;SDS011;5715;48.234;14.320;2022-07-05T06:53:47;2.72;;;2.50;;
11319;SDS011;5715;48.234;14.320;2022-07-05T06:56:51;2.65;;;2.40;;
11319;SDS011;5715;48.234;14.320;2022-07-05T07:00:02;5.82;;;2.83;;
11319;SDS011;5715;48.234;14.320;2022-07-05T07:03:11;4.22;;;3.33;;
11319;SDS011;5715;48.234;14.320;2022-07-05T07:06:09;3.05;;;2.85;;
11319;SDS011;5715;48.234;14.320;2022-07-05T07:08:57;4.32;;;3.13;;
11319;SDS011;5715;48.234;14.320;2022-07-05T07:12:03;3.05;;;2.90;;
11319;SDS011;5715;48.234;14.320;2022-07-05T07:14:51;3.75;;;3.45;;
11319;SDS011;5715;48.234;14.320;2022-07-05T07:17:39;3.58;;;3.22;;
11319;SDS011;5715;48.234;14.320;2022-07-05T07:20:27;3.55;;;3.30;;
11319;SDS011;5715;48.234;14.320;2022-07-05T07:23:15;3.85;;;3.65;;
11319;SDS011;5715;48.234;14.320;2022-07-05T07:26:03;3.85;;;3.65;;
11319;SDS011;5715;48.234;14.320;2022-07-05T07:28:51;3.92;;;3.45;;
11319;SDS011;5715;48.234;14.320;2022-07-05T07:31:38;4.13;;;3.88;;
11319;SDS011;5715;48.234;14.320;2022-07-05T07:34:26;4.43;;;4.15;;
11319;SDS011;5715;48.234;14.320;2022-07-05T07:37:16;4.22;;;4.03;;
11319;SDS011;5715;48.234;14.320;2022-07-05T07:40:05;4.85;;;4.07;;
11319;SDS011;5715;48.234;14.320;2022-07-05T07:42:55;4.68;;;4.38;;
11319;SDS011;5715;48.234;14.320;2022-07-05T07:45:42;4.88;;;4.50;;
11319;SDS011;5715;48.234;14.320;2022-07-05T07:48:30;4.50;;;4.30;;
11319;SDS011;5715;48.234;14.320;2022-07-05T07:51:18;5.05;;;4.65;;
11319;SDS011;5715;48.234;14.320;2022-07-05T07:54:08;5.65;;;5.15;;
11319;SDS011;5715;48.234;14.320;2022-07-05T07:56:56;5.43;;;4.93;;
11319;SDS011;5715;48.234;14.320;2022-07-05T07:59:46;5.80;;;5.40;;
11319;SDS011;5715;48.234;14.320;2022-07-05T08:02:33;6.15;;;5.75;;
11319;SDS011;5715;48.234;14.320;2022-07-05T08:05:21;5.75;;;5.45;;
11319;SDS011;5715;48.234;14.320;2022-07-05T08:08:09;5.28;;;4.78;;
11319;SDS011;5715;48.234;14.320;2022-07-05T08:10:56;4.97;;;4.68;;
11319;SDS011;5715;48.234;14.320;2022-07-05T08:13:45;4.75;;;4.47;;
11319;SDS011;5715;48.234;14.320;2022-07-05T08:16:34;4.10;;;3.90;;
11319;SDS011;5715;48.234;14.320;2022-07-05T08:19:22;4.65;;;4.35;;
11319;SDS011;5715;48.234;14.320;2022-07-05T08:22:28;4.30;;;4.00;;
11319;SDS011;5715;48.234;14.320;2022-07-05T08:25:16;4.40;;;4.10;;
11319;SDS011;5715;48.234;14.320;2022-07-05T08:28:04;6.15;;;4.13;;
11319;SDS011;5715;48.234;14.320;2022-07-05T08:30:51;3.97;;;3.75;;
11319;SDS011;5715;48.234;14.320;2022-07-05T08:33:39;3.78;;;3.58;;
11319;SDS011;5715;48.234;14.320;2022-07-05T08:36:26;3.50;;;3.30;;
11319;SDS011;5715;48.234;14.320;2022-07-05T08:39:14;15.88;;;3.67;;
11319;SDS011;5715;48.234;14.320;2022-07-05T08:42:02;8.60;;;3.53;;
11319;SDS011;5715;48.234;14.320;2022-07-05T08:44:55;3.38;;;3.17;;
11319;SDS011;5715;48.234;14.320;2022-07-05T08:47:45;3.28;;;3.08;;
11319;SDS011;5715;48.234;14.320;2022-07-05T08:50:34;4.57;;;2.65;;
11319;SDS011;5715;48.234;14.320;2022-07-05T08:53:26;2.60;;;2.40;;
11319;SDS011;5715;48.234;14.320;2022-07-05T08:56:15;2.75;;;2.55;;
11319;SDS011;5715;48.234;14.320;2022-07-05T08:59:20;3.00;;;2.80;;
11319;SDS011;5715;48.234;14.320;2022-07-05T09:02:11;2.72;;;2.60;;
11319;SDS011;5715;48.234;14.320;2022-07-05T09:05:03;2.70;;;2.50;;
11319;SDS011;5715;48.234;14.320;2022-07-05T09:07:55;2.45;;;2.35;;
11319;SDS011;5715;48.234;14.320;2022-07-05T09:10:46;2.47;;;2.38;;
11319;SDS011;5715;48.234;14.320;2022-07-05T09:13:36;3.40;;;3.10;;
11319;SDS011;5715;48.234;14.320;2022-07-05T09:16:46;2.75;;;2.65;;
11319;SDS011;5715;48.234;14.320;2022-07-05T09:19:34;2.90;;;2.70;;
11319;SDS011;5715;48.234;14.320;2022-07-05T09:22:27;3.15;;;2.95;;
11319;SDS011;5715;48.234;14.320;2022-07-05T09:25:40;3.35;;;3.00;;
11319;SDS011;5715;48.234;14.320;2022-07-05T09:28:28;3.83;;;3.53;;
11319;SDS011;5715;48.234;14.320;2022-07-05T09:31:32;3.47;;;3.28;;
11319;SDS011;5715;48.234;14.320;2022-07-05T09:34:24;3.58;;;3.38;;
11319;SDS011;5715;48.234;14.320;2022-07-05T09:37:13;7.35;;;6.75;;
11319;SDS011;5715;48.234;14.320;2022-07-05T09:40:01;2.83;;;2.72;;
11319;SDS011;5715;48.234;14.320;2022-07-05T09:42:48;3.63;;;3.38;;
11319;SDS011;5715;48.234;14.320;2022-07-05T09:45:54;4.30;;;3.10;;
11319;SDS011;5715;48.234;14.320;2022-07-05T09:48:51;3.17;;;2.97;;
11319;SDS011;5715;48.234;14.320;2022-07-05T09:51:48;3.67;;;3.50;;
11319;SDS011;5715;48.234;14.320;2022-07-05T09:54:40;3.08;;;2.88;;
11319;SDS011;5715;48.234;14.320;2022-07-05T09:57:47;5.45;;;3.33;;
11319;SDS011;5715;48.234;14.320;2022-07-05T10:00:37;2.80;;;2.70;;
11319;SDS011;5715;48.234;14.320;2022-07-05T10:03:25;4.05;;;3.80;;
11319;SDS011;5715;48.234;14.320;2022-07-05T10:06:12;4.05;;;3.80;;
11319;SDS011;5715;48.234;14.320;2022-07-05T10:09:00;3.50;;;3.30;;
11319;SDS011;5715;48.234;14.320;2022-07-05T10:11:48;9.02;;;3.88;;
11319;SDS011;5715;48.234;14.320;2022-07-05T10:14:38;5.28;;;4.97;;
11319;SDS011;5715;48.234;14.320;2022-07-05T10:17:26;4.25;;;4.05;;
11319;SDS011;5715;48.234;14.320;2022-07-05T10:20:28;4.35;;;4.15;;
11319;SDS011;5715;48.234;14.320;2022-07-05T10:23:24;4.57;;;4.30;;
11319;SDS011;5715;48.234;14.320;2022-07-05T10:26:13;6.07;;;4.03;;
11319;SDS011;5715;48.234;14.320;2022-07-05T10:29:02;5.63;;;5.32;;
11319;SDS011;5715;48.234;14.320;2022-07-05T10:31:50;4.90;;;4.70;;
11319;SDS011;5715;48.234;14.320;2022-07-05T10:34:37;5.82;;;5.28;;
11319;SDS011;5715;48.234;14.320;2022-07-05T10:37:44;8.05;;;4.20;;
11319;SDS011;5715;48.234;14.320;2022-07-05T10:40:33;4.35;;;4.15;;
11319;SDS011;5715;48.234;14.320;2022-07-05T10:43:22;4.82;;;4.53;;
11319;SDS011;5715;48.234;14.320;2022-07-05T10:46:11;4.15;;;3.95;;
11319;SDS011;5715;48.234;14.320;2022-07-05T10:49:20;6.93;;;4.13;;
11319;SDS011;5715;48.234;14.320;2022-07-05T10:52:24;4.22;;;3.92;;
11319;SDS011;5715;48.234;14.320;2022-07-05T10:55:22;3.90;;;3.70;;
11319;SDS011;5715;48.234;14.320;2022-07-05T11:04:10;4.40;;;4.00;;
11319;SDS011;5715;48.234;14.320;2022-07-05T11:07:08;4.50;;;4.20;;
11319;SDS011;5715;48.234;14.320;2022-07-05T11:09:59;4.10;;;3.80;;
11319;SDS011;5715;48.234;14.320;2022-07-05T11:12:49;3.92;;;3.72;;
11319;SDS011;5715;48.234;14.320;2022-07-05T11:15:36;3.90;;;3.63;;
11319;SDS011;5715;48.234;14.320;2022-07-05T11:18:24;3.80;;;3.60;;
11319;SDS011;5715;48.234;14.320;2022-07-05T11:24:19;3.80;;;3.60;;
11319;SDS011;5715;48.234;14.320;2022-07-05T11:27:11;3.47;;;3.17;;
11319;SDS011;5715;48.234;14.320;2022-07-05T11:29:59;6.68;;;3.35;;
11319;SDS011;5715;48.234;14.320;2022-07-05T11:32:47;3.28;;;3.08;;
11319;SDS011;5715;48.234;14.320;2022-07-05T11:35:34;3.63;;;3.42;;
11319;SDS011;5715;48.234;14.320;2022-07-05T11:38:25;3.33;;;3.03;;
11319;SDS011;5715;48.234;14.320;2022-07-05T11:41:33;2.80;;;2.65;;
11319;SDS011;5715;48.234;14.320;2022-07-05T11:44:23;4.82;;;2.88;;
11319;SDS011;5715;48.234;14.320;2022-07-05T11:47:38;4.68;;;2.88;;
11319;SDS011;5715;48.234;14.320;2022-07-05T11:50:30;5.65;;;2.45;;
11319;SDS011;5715;48.234;14.320;2022-07-05T11:53:29;2.20;;;2.10;;
11319;SDS011;5715;48.234;14.320;2022-07-05T11:56:38;3.03;;;2.20;;
11319;SDS011;5715;48.234;14.320;2022-07-05T11:59:26;2.53;;;2.20;;
11319;SDS011;5715;48.234;14.320;2022-07-05T12:02:14;2.17;;;2.08;;
11319;SDS011;5715;48.234;14.320;2022-07-05T12:05:03;2.95;;;2.30;;
11319;SDS011;5715;48.234;14.320;2022-07-05T12:07:51;1.77;;;1.67;;
11319;SDS011;5715;48.234;14.320;2022-07-05T12:10:45;2.25;;;2.05;;
11319;SDS011;5715;48.234;14.320;2022-07-05T12:14:01;2.03;;;1.90;;
11319;SDS011;5715;48.234;14.320;2022-07-05T12:20:10;5.72;;;2.30;;
11319;SDS011;5715;48.234;14.320;2022-07-05T12:23:00;2.60;;;2.40;;
11319;SDS011;5715;48.234;14.320;2022-07-05T12:25:48;2.17;;;2.08;;
11319;SDS011;5715;48.234;14.320;2022-07-05T12:28:36;5.85;;;2.17;;
11319;SDS011;5715;48.234;14.320;2022-07-05T12:31:24;4.55;;;2.35;;
11319;SDS011;5715;48.234;14.320;2022-07-05T12:34:17;2.33;;;2.15;;
11319;SDS011;5715;48.234;14.320;2022-07-05T12:37:08;2.75;;;2.38;;
11319;SDS011;5715;48.234;14.320;2022-07-05T12:40:05;2.33;;;2.10;;
11319;SDS011;5715;48.234;14.320;2022-07-05T12:48:54;2.83;;;2.63;;
11319;SDS011;5715;48.234;14.320;2022-07-05T12:51:42;2.70;;;2.50;;
11319;SDS011;5715;48.234;14.320;2022-07-05T12:54:32;2.10;;;2.00;;
11319;SDS011;5715;48.234;14.320;2022-07-05T12:57:38;2.85;;;2.40;;
11319;SDS011;5715;48.234;14.320;2022-07-05T13:00:51;1.85;;;1.75;;
11319;SDS011;5715;48.234;14.320;2022-07-05T13:03:58;2.80;;;2.60;;
11319;SDS011;5715;48.234;14.320;2022-07-05T13:07:05;2.72;;;2.53;;
11319;SDS011;5715;48.234;14.320;2022-07-05T13:10:23;2.60;;;2.42;;
11319;SDS011;5715;48.234;14.320;2022-07-05T13:13:26;3.95;;;2.50;;
11319;SDS011;5715;48.234;14.320;2022-07-05T13:16:15;2.58;;;2.47;;
11319;SDS011;5715;48.234;14.320;2022-07-05T13:19:09;2.78;;;2.63;;
11319;SDS011;5715;48.234;14.320;2022-07-05T13:21:58;5.25;;;2.58;;
11319;SDS011;5715;48.234;14.320;2022-07-05T13:24:46;4.32;;;2.80;;
11319;SDS011;5715;48.234;14.320;2022-07-05T13:27:33;2.92;;;2.72;;
11319;SDS011;5715;48.234;14.320;2022-07-05T13:30:21;3.47;;;3.28;;
11319;SDS011;5715;48.234;14.320;2022-07-05T13:33:09;2.83;;;2.63;;
11319;SDS011;5715;48.234;14.320;2022-07-05T13:35:56;2.88;;;2.67;;
11319;SDS011;5715;48.234;14.320;2022-07-05T13:38:44;2.85;;;2.65;;
11319;SDS011;5715;48.234;14.320;2022-07-05T13:41:31;3.33;;;2.92;;
11319;SDS011;5715;48.234;14.320;2022-07-05T13:44:19;3.53;;;3.33;;
11319;SDS011;5715;48.234;14.320;2022-07-05T13:47:07;3.95;;;3.67;;
11319;SDS011;5715;48.234;14.320;2022-07-05T13:49:55;4.13;;;3.80;;
11319;SDS011;5715;48.234;14.320;2022-07-05T13:53:02;3.75;;;3.45;;
11319;SDS011;5715;48.234;14.320;2022-07-05T13:55:50;3.47;;;3.22;;
11319;SDS011;5715;48.234;14.320;2022-07-05T13:58:37;3.63;;;3.33;;
11319;SDS011;5715;48.234;14.320;2022-07-05T14:01:25;2.60;;;2.40;;
11319;SDS011;5715;48.234;14.320;2022-07-05T14:04:14;2.72;;;2.50;;
11319;SDS011;5715;48.234;14.320;2022-07-05T14:07:01;4.45;;;2.97;;
11319;SDS011;5715;48.234;14.320;2022-07-05T14:09:49;3.40;;;3.10;;
11319;SDS011;5715;48.234;14.320;2022-07-05T14:12:37;3.33;;;3.10;;
11319;SDS011;5715;48.234;14.320;2022-07-05T14:15:24;4.60;;;3.33;;
11319;SDS011;5715;48.234;14.320;2022-07-05T14:18:12;4.30;;;4.00;;
11319;SDS011;5715;48.234;14.320;2022-07-05T14:21:01;3.78;;;3.58;;
11319;SDS011;5715;48.234;14.320;2022-07-05T14:23:50;3.75;;;3.55;;
11319;SDS011;5715;48.234;14.320;2022-07-05T14:26:38;3.70;;;3.50;;
11319;SDS011;5715;48.234;14.320;2022-07-05T14:29:27;3.97;;;2.75;;
11319;SDS011;5715;48.234;14.320;2022-07-05T14:32:15;4.55;;;3.45;;
11319;SDS011;5715;48.234;14.320;2022-07-05T14:35:06;4.07;;;3.67;;
11319;SDS011;5715;48.234;14.320;2022-07-05T14:37:54;4.68;;;2.47;;
11319;SDS011;5715;48.234;14.320;2022-07-05T14:40:42;2.80;;;2.38;;
11319;SDS011;5715;48.234;14.320;2022-07-05T14:43:29;2.22;;;2.13;;
11319;SDS011;5715;48.234;14.320;2022-07-05T14:46:17;2.80;;;2.60;;
11319;SDS011;5715;48.234;14.320;2022-07-05T14:49:06;3.22;;;3.03;;
11319;SDS011;5715;48.234;14.320;2022-07-05T14:51:53;3.35;;;3.15;;
11319;SDS011;5715;48.234;14.320;2022-07-05T14:54:41;8.10;;;3.70;;
11319;SDS011;5715;48.234;14.320;2022-07-05T14:57:28;3.58;;;3.38;;
11319;SDS011;5715;48.234;14.320;2022-07-05T15:00:16;4.03;;;3.83;;
11319;SDS011;5715;48.234;14.320;2022-07-05T15:03:04;2.60;;;2.50;;
11319;SDS011;5715;48.234;14.320;2022-07-05T15:05:55;2.70;;;2.50;;
11319;SDS011;5715;48.234;14.320;2022-07-05T15:08:42;2.38;;;2.17;;
11319;SDS011;5715;48.234;14.320;2022-07-05T15:11:30;1.90;;;1.80;;
11319;SDS011;5715;48.234;14.320;2022-07-05T15:14:17;2.30;;;2.20;;
11319;SDS011;5715;48.234;14.320;2022-07-05T15:17:05;2.50;;;2.30;;
11319;SDS011;5715;48.234;14.320;2022-07-05T15:19:52;6.10;;;2.38;;
11319;SDS011;5715;48.234;14.320;2022-07-05T15:22:40;2.13;;;2.03;;
11319;SDS011;5715;48.234;14.320;2022-07-05T15:25:28;3.25;;;2.95;;
11319;SDS011;5715;48.234;14.320;2022-07-05T15:28:15;2.92;;;2.65;;
11319;SDS011;5715;48.234;14.320;2022-07-05T15:31:03;5.07;;;2.90;;
11319;SDS011;5715;48.234;14.320;2022-07-05T15:33:50;2.78;;;2.55;;
11319;SDS011;5715;48.234;14.320;2022-07-05T15:36:38;2.80;;;2.60;;
11319;SDS011;5715;48.234;14.320;2022-07-05T15:39:25;2.10;;;1.90;;
11319;SDS011;5715;48.234;14.320;2022-07-05T15:42:13;3.03;;;2.47;;
11319;SDS011;5715;48.234;14.320;2022-07-05T15:45:03;2.95;;;2.60;;
11319;SDS011;5715;48.234;14.320;2022-07-05T15:47:51;3.22;;;3.03;;
11319;SDS011;5715;48.234;14.320;2022-07-05T15:50:39;6.15;;;3.65;;
11319;SDS011;5715;48.234;14.320;2022-07-05T15:53:30;3.63;;;3.42;;
11319;SDS011;5715;48.234;14.320;2022-07-05T15:56:18;3.45;;;3.20;;
11319;SDS011;5715;48.234;14.320;2022-07-05T15:59:08;4.18;;;3.03;;
11319;SDS011;5715;48.234;14.320;2022-07-05T16:01:56;2.90;;;2.70;;
11319;SDS011;5715;48.234;14.320;2022-07-05T16:04:44;2.28;;;2.08;;
11319;SDS011;5715;48.234;14.320;2022-07-05T16:07:31;2.70;;;2.50;;
11319;SDS011;5715;48.234;14.320;2022-07-05T16:10:19;2.38;;;2.17;;
11319;SDS011;5715;48.234;14.320;2022-07-05T16:13:21;2.33;;;2.15;;
11319;SDS011;5715;48.234;14.320;2022-07-05T16:16:09;2.10;;;2.00;;
11319;SDS011;5715;48.234;14.320;2022-07-05T16:18:57;3.10;;;2.90;;
11319;SDS011;5715;48.234;14.320;2022-07-05T16:21:45;3.70;;;3.50;;
11319;SDS011;5715;48.234;14.320;2022-07-05T16:24:36;3.20;;;3.00;;
11319;SDS011;5715;48.234;14.320;2022-07-05T16:27:24;3.35;;;3.15;;
11319;SDS011;5715;48.234;14.320;2022-07-05T16:30:11;3.33;;;3.13;;
11319;SDS011;5715;48.234;14.320;2022-07-05T16:32:59;2.92;;;2.83;;
11319;SDS011;5715;48.234;14.320;2022-07-05T16:35:47;3.88;;;3.65;;
11319;SDS011;5715;48.234;14.320;2022-07-05T16:38:35;3.35;;;3.05;;
11319;SDS011;5715;48.234;14.320;2022-07-05T16:41:23;3.60;;;3.40;;
11319;SDS011;5715;48.234;14.320;2022-07-05T16:44:11;3.03;;;2.83;;
11319;SDS011;5715;48.234;14.320;2022-07-05T16:46:58;2.40;;;2.20;;
11319;SDS011;5715;48.234;14.320;2022-07-05T16:49:46;3.10;;;2.80;;
11319;SDS011;5715;48.234;14.320;2022-07-05T16:52:34;2.50;;;2.33;;
11319;SDS011;5715;48.234;14.320;2022-07-05T16:55:24;3.50;;;3.10;;
11319;SDS011;5715;48.234;14.320;2022-07-05T16:58:11;4.53;;;2.70;;
11319;SDS011;5715;48.234;14.320;2022-07-05T17:00:59;3.60;;;3.30;;
11319;SDS011;5715;48.234;14.320;2022-07-05T17:03:48;3.10;;;2.90;;
11319;SDS011;5715;48.234;14.320;2022-07-05T17:06:38;2.88;;;2.67;;
11319;SDS011;5715;48.234;14.320;2022-07-05T17:09:25;3.50;;;3.20;;
11319;SDS011;5715;48.234;14.320;2022-07-05T17:12:13;3.17;;;2.97;;
11319;SDS011;5715;48.234;14.320;2022-07-05T17:15:00;3.20;;;3.00;;
11319;SDS011;5715;48.234;14.320;2022-07-05T17:17:48;3.47;;;3.17;;
11319;SDS011;5715;48.234;14.320;2022-07-05T17:20:36;3.15;;;2.95;;
11319;SDS011;5715;48.234;14.320;2022-07-05T17:23:23;4.03;;;3.38;;